sensor_id;sensor_type;location;lat;lon;timestamp;P1;durP1;ratioP1;P2;durP2;ratioP2
18364;SDS011;9309;52.126;11.616;2022-10-16T00:00:29;3.10;;;3.00;;
18364;SDS011;9309;52.126;11.616;2022-10-16T00:02:57;3.40;;;3.20;;
18364;SDS011;9309;52.126;11.616;2022-10-16T00:05:24;3.43;;;3.30;;
18364;SDS011;9309;52.126;11.616;2022-10-16T00:07:51;3.33;;;3.23;;
18364;SDS011;9309;52.126;11.616;2022-10-16T00:10:18;3.63;;;3.40;;
18364;SDS011;9309;52.126;11.616;2022-10-16T00:12:45;4.10;;;4.00;;
18364;SDS011;9309;52.126;11.616;2022-10-16T00:15:11;4.43;;;4.23;;
18364;SDS011;9309;52.126;11.616;2022-10-16T00:17:38;3.87;;;3.77;;
18364;SDS011;9309;52.126;11.616;2022-10-16T00:20:07;4.20;;;4.10;;
18364;SDS011;9309;52.126;11.616;2022-10-16T00:22:34;3.67;;;3.57;;
18364;SDS011;9309;52.126;11.616;2022-10-16T00:25:01;3.80;;;3.70;;
18364;SDS011;9309;52.126;11.616;2022-10-16T00:27:28;4.13;;;3.77;;
18364;SDS011;9309;52.126;11.616;2022-10-16T00:29:54;3.50;;;3.40;;
18364;SDS011;9309;52.126;11.616;2022-10-16T00:32:21;3.40;;;3.30;;
18364;SDS011;9309;52.126;11.616;2022-10-16T00:34:48;2.87;;;2.77;;
18364;SDS011;9309;52.126;11.616;2022-10-16T00:37:16;3.40;;;2.73;;
18364;SDS011;9309;52.126;11.616;2022-10-16T00:39:43;3.27;;;3.07;;
18364;SDS011;9309;52.126;11.616;2022-10-16T00:42:10;2.97;;;2.73;;
18364;SDS011;9309;52.126;11.616;2022-10-16T00:44:51;3.20;;;3.10;;
18364;SDS011;9309;52.126;11.616;2022-10-16T00:47:19;2.70;;;2.60;;
18364;SDS011;9309;52.126;11.616;2022-10-16T00:49:50;2.80;;;2.70;;
18364;SDS011;9309;52.126;11.616;2022-10-16T00:52:23;2.60;;;2.50;;
18364;SDS011;9309;52.126;11.616;2022-10-16T00:54:50;3.00;;;2.80;;
18364;SDS011;9309;52.126;11.616;2022-10-16T00:57:19;3.03;;;2.93;;
18364;SDS011;9309;52.126;11.616;2022-10-16T00:59:46;2.87;;;2.80;;
18364;SDS011;9309;52.126;11.616;2022-10-16T01:02:14;2.93;;;2.80;;
18364;SDS011;9309;52.126;11.616;2022-10-16T01:04:42;2.87;;;2.87;;
18364;SDS011;9309;52.126;11.616;2022-10-16T01:07:12;3.23;;;3.07;;
18364;SDS011;9309;52.126;11.616;2022-10-16T01:09:53;3.23;;;3.10;;
18364;SDS011;9309;52.126;11.616;2022-10-16T01:12:29;3.13;;;3.03;;
18364;SDS011;9309;52.126;11.616;2022-10-16T01:15:03;3.03;;;2.93;;
18364;SDS011;9309;52.126;11.616;2022-10-16T01:17:38;3.47;;;3.30;;
18364;SDS011;9309;52.126;11.616;2022-10-16T01:20:11;3.03;;;3.00;;
18364;SDS011;9309;52.126;11.616;2022-10-16T01:22:50;3.30;;;3.20;;
18364;SDS011;9309;52.126;11.616;2022-10-16T01:25:36;3.10;;;3.00;;
18364;SDS011;9309;52.126;11.616;2022-10-16T01:28:15;3.77;;;3.47;;
18364;SDS011;9309;52.126;11.616;2022-10-16T01:30:43;3.47;;;3.23;;
18364;SDS011;9309;52.126;11.616;2022-10-16T01:33:14;3.07;;;2.90;;
18364;SDS011;9309;52.126;11.616;2022-10-16T01:35:46;2.87;;;2.83;;
18364;SDS011;9309;52.126;11.616;2022-10-16T01:38:17;2.60;;;2.50;;
18364;SDS011;9309;52.126;11.616;2022-10-16T01:40:49;2.63;;;2.50;;
18364;SDS011;9309;52.126;11.616;2022-10-16T01:43:24;6.33;;;2.70;;
18364;SDS011;9309;52.126;11.616;2022-10-16T01:45:55;2.47;;;2.47;;
18364;SDS011;9309;52.126;11.616;2022-10-16T01:48:22;2.87;;;2.80;;
18364;SDS011;9309;52.126;11.616;2022-10-16T01:50:51;2.97;;;2.87;;
18364;SDS011;9309;52.126;11.616;2022-10-16T01:53:21;3.13;;;3.03;;
18364;SDS011;9309;52.126;11.616;2022-10-16T01:55:50;3.60;;;3.23;;
18364;SDS011;9309;52.126;11.616;2022-10-16T01:58:22;3.73;;;3.50;;
18364;SDS011;9309;52.126;11.616;2022-10-16T02:00:51;3.43;;;3.30;;
18364;SDS011;9309;52.126;11.616;2022-10-16T02:03:22;3.00;;;2.90;;
18364;SDS011;9309;52.126;11.616;2022-10-16T02:05:49;3.23;;;2.97;;
18364;SDS011;9309;52.126;11.616;2022-10-16T02:08:20;3.30;;;3.20;;
18364;SDS011;9309;52.126;11.616;2022-10-16T02:10:48;3.53;;;3.33;;
18364;SDS011;9309;52.126;11.616;2022-10-16T02:13:17;3.80;;;3.50;;
18364;SDS011;9309;52.126;11.616;2022-10-16T02:15:48;4.30;;;3.90;;
18364;SDS011;9309;52.126;11.616;2022-10-16T02:18:19;3.37;;;3.27;;
18364;SDS011;9309;52.126;11.616;2022-10-16T02:20:48;4.07;;;3.73;;
18364;SDS011;9309;52.126;11.616;2022-10-16T02:23:20;3.57;;;3.47;;
18364;SDS011;9309;52.126;11.616;2022-10-16T02:25:54;4.10;;;3.90;;
18364;SDS011;9309;52.126;11.616;2022-10-16T02:28:26;4.17;;;3.87;;
18364;SDS011;9309;52.126;11.616;2022-10-16T02:31:01;3.40;;;3.20;;
18364;SDS011;9309;52.126;11.616;2022-10-16T02:33:30;3.57;;;3.40;;
18364;SDS011;9309;52.126;11.616;2022-10-16T02:35:59;3.47;;;3.37;;
18364;SDS011;9309;52.126;11.616;2022-10-16T02:38:26;3.47;;;3.37;;
18364;SDS011;9309;52.126;11.616;2022-10-16T02:40:55;3.90;;;3.70;;
18364;SDS011;9309;52.126;11.616;2022-10-16T02:43:22;4.57;;;3.80;;
18364;SDS011;9309;52.126;11.616;2022-10-16T02:45:49;3.90;;;3.70;;
18364;SDS011;9309;52.126;11.616;2022-10-16T02:48:17;3.80;;;3.50;;
18364;SDS011;9309;52.126;11.616;2022-10-16T02:50:44;4.53;;;4.13;;
18364;SDS011;9309;52.126;11.616;2022-10-16T02:53:10;4.17;;;3.97;;
18364;SDS011;9309;52.126;11.616;2022-10-16T02:55:37;4.07;;;3.87;;
18364;SDS011;9309;52.126;11.616;2022-10-16T02:58:04;5.67;;;4.37;;
18364;SDS011;9309;52.126;11.616;2022-10-16T03:00:30;4.40;;;4.20;;
18364;SDS011;9309;52.126;11.616;2022-10-16T03:02:57;4.10;;;3.90;;
18364;SDS011;9309;52.126;11.616;2022-10-16T03:05:25;5.10;;;4.80;;
18364;SDS011;9309;52.126;11.616;2022-10-16T03:07:52;5.00;;;4.53;;
18364;SDS011;9309;52.126;11.616;2022-10-16T03:10:19;4.50;;;4.10;;
18364;SDS011;9309;52.126;11.616;2022-10-16T03:12:46;4.50;;;4.20;;
18364;SDS011;9309;52.126;11.616;2022-10-16T03:15:13;4.47;;;4.17;;
18364;SDS011;9309;52.126;11.616;2022-10-16T03:17:39;4.33;;;4.03;;
18364;SDS011;9309;52.126;11.616;2022-10-16T03:20:06;4.60;;;4.13;;
18364;SDS011;9309;52.126;11.616;2022-10-16T03:22:35;4.27;;;3.97;;
18364;SDS011;9309;52.126;11.616;2022-10-16T03:25:02;4.40;;;4.00;;
18364;SDS011;9309;52.126;11.616;2022-10-16T03:27:29;4.97;;;4.33;;
18364;SDS011;9309;52.126;11.616;2022-10-16T03:29:55;5.70;;;3.80;;
18364;SDS011;9309;52.126;11.616;2022-10-16T03:32:22;4.30;;;4.00;;
18364;SDS011;9309;52.126;11.616;2022-10-16T03:42:12;4.70;;;4.17;;
18364;SDS011;9309;52.126;11.616;2022-10-16T03:44:39;4.23;;;4.00;;
18364;SDS011;9309;52.126;11.616;2022-10-16T06:21:22;6.10;;;5.60;;
18364;SDS011;9309;52.126;11.616;2022-10-16T06:23:50;6.00;;;5.00;;
18364;SDS011;9309;52.126;11.616;2022-10-16T06:55:49;8.97;;;6.20;;
18364;SDS011;9309;52.126;11.616;2022-10-16T06:58:17;6.03;;;5.50;;
18364;SDS011;9309;52.126;11.616;2022-10-16T07:00:44;5.47;;;5.17;;
18364;SDS011;9309;52.126;11.616;2022-10-16T07:03:11;6.00;;;5.50;;
18364;SDS011;9309;52.126;11.616;2022-10-16T07:05:39;6.70;;;6.10;;
18364;SDS011;9309;52.126;11.616;2022-10-16T07:08:06;6.63;;;6.07;;
18364;SDS011;9309;52.126;11.616;2022-10-16T07:10:33;8.47;;;7.20;;
18364;SDS011;9309;52.126;11.616;2022-10-16T07:13:00;8.70;;;6.43;;
18364;SDS011;9309;52.126;11.616;2022-10-16T07:15:27;6.03;;;5.53;;
18364;SDS011;9309;52.126;11.616;2022-10-16T07:17:54;6.37;;;5.50;;
18364;SDS011;9309;52.126;11.616;2022-10-16T07:20:21;6.03;;;5.40;;
18364;SDS011;9309;52.126;11.616;2022-10-16T07:22:49;5.50;;;5.03;;
18364;SDS011;9309;52.126;11.616;2022-10-16T07:25:16;5.40;;;5.00;;
18364;SDS011;9309;52.126;11.616;2022-10-16T07:27:43;5.40;;;4.90;;
18364;SDS011;9309;52.126;11.616;2022-10-16T07:37:30;4.97;;;4.57;;
18364;SDS011;9309;52.126;11.616;2022-10-16T07:39:58;5.37;;;4.73;;
18364;SDS011;9309;52.126;11.616;2022-10-16T07:42:25;4.93;;;4.57;;
18364;SDS011;9309;52.126;11.616;2022-10-16T07:44:53;5.17;;;4.77;;
18364;SDS011;9309;52.126;11.616;2022-10-16T07:47:20;6.57;;;5.30;;
18364;SDS011;9309;52.126;11.616;2022-10-16T07:49:46;5.67;;;5.07;;
18364;SDS011;9309;52.126;11.616;2022-10-16T07:52:13;6.97;;;5.57;;
18364;SDS011;9309;52.126;11.616;2022-10-16T07:54:40;5.20;;;4.80;;
18364;SDS011;9309;52.126;11.616;2022-10-16T07:57:08;7.40;;;5.07;;
18364;SDS011;9309;52.126;11.616;2022-10-16T07:59:35;5.20;;;4.90;;
18364;SDS011;9309;52.126;11.616;2022-10-16T12:02:49;6.50;;;1.27;;
18364;SDS011;9309;52.126;11.616;2022-10-16T12:05:24;0.70;;;0.70;;
18364;SDS011;9309;52.126;11.616;2022-10-16T12:08:02;0.70;;;0.70;;
18364;SDS011;9309;52.126;11.616;2022-10-16T12:10:34;1.55;;;0.80;;
18364;SDS011;9309;52.126;11.616;2022-10-16T12:13:03;0.60;;;0.60;;
18364;SDS011;9309;52.126;11.616;2022-10-16T12:15:31;1.13;;;0.57;;
18364;SDS011;9309;52.126;11.616;2022-10-16T12:17:59;2.53;;;0.80;;
18364;SDS011;9309;52.126;11.616;2022-10-16T12:20:27;0.80;;;0.80;;
18364;SDS011;9309;52.126;11.616;2022-10-16T12:22:57;3.60;;;1.00;;
18364;SDS011;9309;52.126;11.616;2022-10-16T12:25:27;0.80;;;0.80;;
18364;SDS011;9309;52.126;11.616;2022-10-16T12:27:59;0.77;;;0.77;;
18364;SDS011;9309;52.126;11.616;2022-10-16T12:30:29;2.38;;;0.60;;
18364;SDS011;9309;52.126;11.616;2022-10-16T12:32:58;1.20;;;0.70;;
18364;SDS011;9309;52.126;11.616;2022-10-16T12:35:28;1.13;;;1.00;;
18364;SDS011;9309;52.126;11.616;2022-10-16T12:38:05;0.80;;;0.80;;
18364;SDS011;9309;52.126;11.616;2022-10-16T12:40:35;0.77;;;0.77;;
18364;SDS011;9309;52.126;11.616;2022-10-16T12:46:04;0.60;;;0.60;;
18364;SDS011;9309;52.126;11.616;2022-10-16T12:48:46;0.60;;;0.60;;
18364;SDS011;9309;52.126;11.616;2022-10-16T12:51:21;0.55;;;0.47;;
18364;SDS011;9309;52.126;11.616;2022-10-16T12:53:57;0.95;;;0.57;;
18364;SDS011;9309;52.126;11.616;2022-10-16T12:56:26;0.70;;;0.70;;
18364;SDS011;9309;52.126;11.616;2022-10-16T12:59:04;0.70;;;0.70;;
18364;SDS011;9309;52.126;11.616;2022-10-16T13:01:43;0.60;;;0.60;;
18364;SDS011;9309;52.126;11.616;2022-10-16T13:04:29;1.63;;;0.80;;
18364;SDS011;9309;52.126;11.616;2022-10-16T13:07:25;3.60;;;0.75;;
18364;SDS011;9309;52.126;11.616;2022-10-16T13:10:02;2.40;;;0.80;;
18364;SDS011;9309;52.126;11.616;2022-10-16T13:12:45;2.17;;;0.55;;
18364;SDS011;9309;52.126;11.616;2022-10-16T13:15:29;1.45;;;0.70;;
18364;SDS011;9309;52.126;11.616;2022-10-16T13:18:10;3.30;;;0.60;;
18364;SDS011;9309;52.126;11.616;2022-10-16T13:20:49;0.63;;;0.60;;
18364;SDS011;9309;52.126;11.616;2022-10-16T13:23:23;0.40;;;0.40;;
18364;SDS011;9309;52.126;11.616;2022-10-16T13:25:59;0.60;;;0.60;;
18364;SDS011;9309;52.126;11.616;2022-10-16T13:28:35;0.50;;;0.50;;
18364;SDS011;9309;52.126;11.616;2022-10-16T13:31:05;0.40;;;0.40;;
18364;SDS011;9309;52.126;11.616;2022-10-16T13:33:39;0.50;;;0.50;;
18364;SDS011;9309;52.126;11.616;2022-10-16T13:36:17;0.60;;;0.60;;
18364;SDS011;9309;52.126;11.616;2022-10-16T13:38:45;0.50;;;0.50;;
18364;SDS011;9309;52.126;11.616;2022-10-16T13:41:13;1.20;;;0.50;;
18364;SDS011;9309;52.126;11.616;2022-10-16T13:43:42;2.03;;;0.40;;
18364;SDS011;9309;52.126;11.616;2022-10-16T13:46:12;0.43;;;0.43;;
18364;SDS011;9309;52.126;11.616;2022-10-16T13:48:42;0.63;;;0.60;;
18364;SDS011;9309;52.126;11.616;2022-10-16T13:51:12;0.57;;;0.57;;
18364;SDS011;9309;52.126;11.616;2022-10-16T13:53:40;0.60;;;0.60;;
18364;SDS011;9309;52.126;11.616;2022-10-16T13:56:09;0.88;;;0.70;;
18364;SDS011;9309;52.126;11.616;2022-10-16T13:58:37;0.75;;;0.75;;
18364;SDS011;9309;52.126;11.616;2022-10-16T14:01:05;0.85;;;0.70;;
18364;SDS011;9309;52.126;11.616;2022-10-16T14:03:43;0.70;;;0.70;;
18364;SDS011;9309;52.126;11.616;2022-10-16T14:06:11;0.70;;;0.70;;
18364;SDS011;9309;52.126;11.616;2022-10-16T14:08:42;0.70;;;0.70;;
18364;SDS011;9309;52.126;11.616;2022-10-16T14:11:11;0.83;;;0.80;;
18364;SDS011;9309;52.126;11.616;2022-10-16T14:13:38;0.67;;;0.67;;
18364;SDS011;9309;52.126;11.616;2022-10-16T14:16:09;0.60;;;0.60;;
18364;SDS011;9309;52.126;11.616;2022-10-16T14:18:44;0.50;;;0.50;;
18364;SDS011;9309;52.126;11.616;2022-10-16T14:21:15;0.60;;;0.60;;
18364;SDS011;9309;52.126;11.616;2022-10-16T14:23:42;0.90;;;0.90;;
18364;SDS011;9309;52.126;11.616;2022-10-16T14:26:13;2.20;;;0.70;;
18364;SDS011;9309;52.126;11.616;2022-10-16T14:28:42;0.73;;;0.73;;
18364;SDS011;9309;52.126;11.616;2022-10-16T14:31:26;0.60;;;0.60;;
18364;SDS011;9309;52.126;11.616;2022-10-16T14:33:56;0.90;;;0.90;;
18364;SDS011;9309;52.126;11.616;2022-10-16T14:36:24;0.80;;;0.80;;
18364;SDS011;9309;52.126;11.616;2022-10-16T14:38:56;1.10;;;0.80;;
18364;SDS011;9309;52.126;11.616;2022-10-16T14:41:26;0.90;;;0.90;;
18364;SDS011;9309;52.126;11.616;2022-10-16T14:43:54;2.33;;;1.00;;
18364;SDS011;9309;52.126;11.616;2022-10-16T14:46:27;1.70;;;0.90;;
18364;SDS011;9309;52.126;11.616;2022-10-16T14:48:59;1.00;;;0.90;;
18364;SDS011;9309;52.126;11.616;2022-10-16T14:51:29;0.90;;;0.90;;
18364;SDS011;9309;52.126;11.616;2022-10-16T14:53:56;0.73;;;0.73;;
18364;SDS011;9309;52.126;11.616;2022-10-16T14:56:23;1.50;;;1.07;;
18364;SDS011;9309;52.126;11.616;2022-10-16T14:58:52;0.70;;;0.70;;
18364;SDS011;9309;52.126;11.616;2022-10-16T15:01:19;1.13;;;0.90;;
18364;SDS011;9309;52.126;11.616;2022-10-16T15:03:46;1.83;;;1.00;;
18364;SDS011;9309;52.126;11.616;2022-10-16T15:06:15;1.10;;;1.10;;
18364;SDS011;9309;52.126;11.616;2022-10-16T15:08:42;1.50;;;1.40;;
18364;SDS011;9309;52.126;11.616;2022-10-16T15:11:10;1.10;;;1.10;;
18364;SDS011;9309;52.126;11.616;2022-10-16T15:13:39;1.23;;;1.23;;
18364;SDS011;9309;52.126;11.616;2022-10-16T15:16:07;0.90;;;0.90;;
18364;SDS011;9309;52.126;11.616;2022-10-16T15:18:36;1.00;;;0.90;;
18364;SDS011;9309;52.126;11.616;2022-10-16T15:21:03;1.03;;;1.00;;
18364;SDS011;9309;52.126;11.616;2022-10-16T15:23:31;1.10;;;1.03;;
18364;SDS011;9309;52.126;11.616;2022-10-16T15:25:58;0.90;;;0.90;;
18364;SDS011;9309;52.126;11.616;2022-10-16T15:28:25;0.77;;;0.77;;
18364;SDS011;9309;52.126;11.616;2022-10-16T15:30:52;1.50;;;1.17;;
18364;SDS011;9309;52.126;11.616;2022-10-16T15:33:22;1.10;;;1.10;;
18364;SDS011;9309;52.126;11.616;2022-10-16T15:35:52;1.00;;;1.00;;
18364;SDS011;9309;52.126;11.616;2022-10-16T15:38:20;3.27;;;1.20;;
18364;SDS011;9309;52.126;11.616;2022-10-16T15:40:49;3.20;;;1.00;;
18364;SDS011;9309;52.126;11.616;2022-10-16T15:43:16;1.10;;;1.10;;
18364;SDS011;9309;52.126;11.616;2022-10-16T15:45:44;1.10;;;1.10;;
18364;SDS011;9309;52.126;11.616;2022-10-16T15:48:18;1.20;;;1.10;;
18364;SDS011;9309;52.126;11.616;2022-10-16T15:50:45;1.10;;;1.10;;
18364;SDS011;9309;52.126;11.616;2022-10-16T15:53:11;1.50;;;1.40;;
18364;SDS011;9309;52.126;11.616;2022-10-16T15:55:38;1.20;;;1.20;;
18364;SDS011;9309;52.126;11.616;2022-10-16T15:58:07;2.20;;;1.50;;
18364;SDS011;9309;52.126;11.616;2022-10-16T16:00:34;3.60;;;1.17;;
18364;SDS011;9309;52.126;11.616;2022-10-16T16:03:01;1.30;;;1.30;;
18364;SDS011;9309;52.126;11.616;2022-10-16T16:05:27;2.03;;;1.40;;
18364;SDS011;9309;52.126;11.616;2022-10-16T16:07:54;1.40;;;1.20;;
18364;SDS011;9309;52.126;11.616;2022-10-16T16:10:21;1.40;;;1.30;;
18364;SDS011;9309;52.126;11.616;2022-10-16T16:12:48;2.20;;;1.40;;
18364;SDS011;9309;52.126;11.616;2022-10-16T16:15:19;1.33;;;1.23;;
18364;SDS011;9309;52.126;11.616;2022-10-16T16:17:47;1.70;;;1.60;;
18364;SDS011;9309;52.126;11.616;2022-10-16T16:20:13;1.27;;;1.27;;
18364;SDS011;9309;52.126;11.616;2022-10-16T16:22:41;1.10;;;1.10;;
18364;SDS011;9309;52.126;11.616;2022-10-16T16:25:08;1.63;;;1.53;;
18364;SDS011;9309;52.126;11.616;2022-10-16T16:27:35;1.63;;;1.53;;
18364;SDS011;9309;52.126;11.616;2022-10-16T16:30:04;1.60;;;1.50;;
18364;SDS011;9309;52.126;11.616;2022-10-16T16:32:33;1.63;;;1.53;;
18364;SDS011;9309;52.126;11.616;2022-10-16T16:35:01;4.83;;;1.70;;
18364;SDS011;9309;52.126;11.616;2022-10-16T16:37:28;2.93;;;1.90;;
18364;SDS011;9309;52.126;11.616;2022-10-16T16:39:55;1.73;;;1.63;;
18364;SDS011;9309;52.126;11.616;2022-10-16T16:42:23;2.70;;;2.50;;
18364;SDS011;9309;52.126;11.616;2022-10-16T16:44:50;2.73;;;2.33;;
18364;SDS011;9309;52.126;11.616;2022-10-16T16:47:17;1.80;;;1.80;;
18364;SDS011;9309;52.126;11.616;2022-10-16T16:49:46;8.43;;;1.93;;
18364;SDS011;9309;52.126;11.616;2022-10-16T16:52:12;3.53;;;1.57;;
18364;SDS011;9309;52.126;11.616;2022-10-16T16:54:39;3.57;;;1.83;;
18364;SDS011;9309;52.126;11.616;2022-10-16T16:57:06;2.20;;;2.07;;
18364;SDS011;9309;52.126;11.616;2022-10-16T16:59:33;2.30;;;2.13;;
18364;SDS011;9309;52.126;11.616;2022-10-16T17:02:00;1.90;;;1.80;;
18364;SDS011;9309;52.126;11.616;2022-10-16T17:04:28;1.97;;;1.87;;
18364;SDS011;9309;52.126;11.616;2022-10-16T17:06:56;2.70;;;2.50;;
18364;SDS011;9309;52.126;11.616;2022-10-16T17:09:23;4.30;;;2.90;;
18364;SDS011;9309;52.126;11.616;2022-10-16T17:11:50;3.23;;;2.90;;
18364;SDS011;9309;52.126;11.616;2022-10-16T17:14:17;2.83;;;2.67;;
18364;SDS011;9309;52.126;11.616;2022-10-16T17:16:44;3.80;;;2.57;;
18364;SDS011;9309;52.126;11.616;2022-10-16T17:19:13;3.37;;;2.17;;
18364;SDS011;9309;52.126;11.616;2022-10-16T17:21:42;2.97;;;2.47;;
18364;SDS011;9309;52.126;11.616;2022-10-16T17:24:10;6.20;;;2.47;;
18364;SDS011;9309;52.126;11.616;2022-10-16T17:26:37;4.80;;;4.20;;
18364;SDS011;9309;52.126;11.616;2022-10-16T17:29:09;4.10;;;3.87;;
18364;SDS011;9309;52.126;11.616;2022-10-16T17:31:37;3.90;;;3.50;;
18364;SDS011;9309;52.126;11.616;2022-10-16T17:34:06;4.17;;;3.07;;
18364;SDS011;9309;52.126;11.616;2022-10-16T17:36:35;3.33;;;3.10;;
18364;SDS011;9309;52.126;11.616;2022-10-16T17:39:03;8.53;;;4.03;;
18364;SDS011;9309;52.126;11.616;2022-10-16T17:41:33;3.40;;;2.93;;
18364;SDS011;9309;52.126;11.616;2022-10-16T17:44:01;4.60;;;3.70;;
18364;SDS011;9309;52.126;11.616;2022-10-16T17:46:29;5.67;;;4.30;;
18364;SDS011;9309;52.126;11.616;2022-10-16T17:48:56;8.43;;;4.57;;
18364;SDS011;9309;52.126;11.616;2022-10-16T17:51:26;6.70;;;4.20;;
18364;SDS011;9309;52.126;11.616;2022-10-16T17:53:54;7.90;;;4.47;;
18364;SDS011;9309;52.126;11.616;2022-10-16T17:56:22;9.43;;;5.23;;
18364;SDS011;9309;52.126;11.616;2022-10-16T17:58:52;7.73;;;6.37;;
18364;SDS011;9309;52.126;11.616;2022-10-16T18:01:21;7.60;;;6.60;;
18364;SDS011;9309;52.126;11.616;2022-10-16T18:03:49;7.33;;;4.80;;
18364;SDS011;9309;52.126;11.616;2022-10-16T18:06:17;5.87;;;3.77;;
18364;SDS011;9309;52.126;11.616;2022-10-16T18:08:43;4.20;;;3.90;;
18364;SDS011;9309;52.126;11.616;2022-10-16T18:11:10;7.30;;;4.60;;
18364;SDS011;9309;52.126;11.616;2022-10-16T18:13:37;9.63;;;5.80;;
18364;SDS011;9309;52.126;11.616;2022-10-16T18:16:06;15.70;;;7.90;;
18364;SDS011;9309;52.126;11.616;2022-10-16T18:18:34;8.07;;;5.30;;
18364;SDS011;9309;52.126;11.616;2022-10-16T18:21:02;5.43;;;3.63;;
18364;SDS011;9309;52.126;11.616;2022-10-16T18:23:31;5.63;;;3.43;;
18364;SDS011;9309;52.126;11.616;2022-10-16T18:25:59;3.33;;;2.77;;
18364;SDS011;9309;52.126;11.616;2022-10-16T18:28:26;5.57;;;3.40;;
18364;SDS011;9309;52.126;11.616;2022-10-16T18:30:53;4.93;;;3.70;;
18364;SDS011;9309;52.126;11.616;2022-10-16T18:33:22;13.63;;;4.63;;
18364;SDS011;9309;52.126;11.616;2022-10-16T18:35:49;9.73;;;5.13;;
18364;SDS011;9309;52.126;11.616;2022-10-16T18:38:17;8.77;;;4.80;;
18364;SDS011;9309;52.126;11.616;2022-10-16T18:40:44;10.30;;;5.73;;
18364;SDS011;9309;52.126;11.616;2022-10-16T18:43:11;6.97;;;4.00;;
18364;SDS011;9309;52.126;11.616;2022-10-16T18:45:38;10.63;;;4.30;;
18364;SDS011;9309;52.126;11.616;2022-10-16T18:48:05;8.00;;;4.40;;
18364;SDS011;9309;52.126;11.616;2022-10-16T18:50:33;7.63;;;4.57;;
18364;SDS011;9309;52.126;11.616;2022-10-16T18:53:00;10.23;;;5.20;;
18364;SDS011;9309;52.126;11.616;2022-10-16T18:55:27;6.70;;;5.20;;
18364;SDS011;9309;52.126;11.616;2022-10-16T18:57:54;6.77;;;4.37;;
18364;SDS011;9309;52.126;11.616;2022-10-16T19:00:21;7.30;;;4.77;;
18364;SDS011;9309;52.126;11.616;2022-10-16T19:02:48;8.57;;;5.93;;
18364;SDS011;9309;52.126;11.616;2022-10-16T19:05:15;10.33;;;5.77;;
18364;SDS011;9309;52.126;11.616;2022-10-16T19:07:45;10.90;;;5.33;;
18364;SDS011;9309;52.126;11.616;2022-10-16T19:10:12;9.57;;;4.80;;
18364;SDS011;9309;52.126;11.616;2022-10-16T19:12:39;7.67;;;4.40;;
18364;SDS011;9309;52.126;11.616;2022-10-16T19:15:06;5.73;;;5.13;;
18364;SDS011;9309;52.126;11.616;2022-10-16T19:17:34;9.13;;;5.77;;
18364;SDS011;9309;52.126;11.616;2022-10-16T19:20:02;6.80;;;4.77;;
18364;SDS011;9309;52.126;11.616;2022-10-16T19:22:30;9.77;;;5.57;;
18364;SDS011;9309;52.126;11.616;2022-10-16T19:25:17;7.30;;;5.20;;
18364;SDS011;9309;52.126;11.616;2022-10-16T19:27:46;14.47;;;6.90;;
18364;SDS011;9309;52.126;11.616;2022-10-16T19:30:13;7.13;;;6.07;;
18364;SDS011;9309;52.126;11.616;2022-10-16T19:32:40;7.90;;;5.50;;
18364;SDS011;9309;52.126;11.616;2022-10-16T19:35:07;10.33;;;5.97;;
18364;SDS011;9309;52.126;11.616;2022-10-16T19:37:34;11.60;;;5.77;;
18364;SDS011;9309;52.126;11.616;2022-10-16T19:40:02;11.43;;;5.13;;
18364;SDS011;9309;52.126;11.616;2022-10-16T19:42:31;6.60;;;5.17;;
18364;SDS011;9309;52.126;11.616;2022-10-16T19:44:58;12.10;;;5.77;;
18364;SDS011;9309;52.126;11.616;2022-10-16T19:47:24;10.37;;;5.90;;
18364;SDS011;9309;52.126;11.616;2022-10-16T19:49:51;8.07;;;5.50;;
18364;SDS011;9309;52.126;11.616;2022-10-16T19:52:18;7.57;;;5.50;;
18364;SDS011;9309;52.126;11.616;2022-10-16T19:54:46;8.20;;;5.17;;
18364;SDS011;9309;52.126;11.616;2022-10-16T19:57:13;8.93;;;5.33;;
18364;SDS011;9309;52.126;11.616;2022-10-16T19:59:41;7.43;;;5.17;;
18364;SDS011;9309;52.126;11.616;2022-10-16T20:02:09;7.27;;;5.23;;
18364;SDS011;9309;52.126;11.616;2022-10-16T20:04:36;7.57;;;5.07;;
18364;SDS011;9309;52.126;11.616;2022-10-16T20:07:03;7.53;;;5.30;;
18364;SDS011;9309;52.126;11.616;2022-10-16T20:09:31;8.87;;;5.53;;
18364;SDS011;9309;52.126;11.616;2022-10-16T20:11:58;7.60;;;5.23;;
18364;SDS011;9309;52.126;11.616;2022-10-16T20:14:25;12.17;;;4.90;;
18364;SDS011;9309;52.126;11.616;2022-10-16T20:16:54;8.27;;;5.13;;
18364;SDS011;9309;52.126;11.616;2022-10-16T20:19:21;7.73;;;5.13;;
18364;SDS011;9309;52.126;11.616;2022-10-16T20:21:47;7.37;;;5.13;;
18364;SDS011;9309;52.126;11.616;2022-10-16T20:24:14;6.70;;;5.03;;
18364;SDS011;9309;52.126;11.616;2022-10-16T20:26:42;5.73;;;5.13;;
18364;SDS011;9309;52.126;11.616;2022-10-16T20:29:09;5.93;;;4.90;;
18364;SDS011;9309;52.126;11.616;2022-10-16T20:31:37;7.27;;;5.23;;
18364;SDS011;9309;52.126;11.616;2022-10-16T20:34:07;11.27;;;5.83;;
18364;SDS011;9309;52.126;11.616;2022-10-16T20:36:36;5.90;;;4.73;;
18364;SDS011;9309;52.126;11.616;2022-10-16T20:39:07;10.17;;;5.43;;
18364;SDS011;9309;52.126;11.616;2022-10-16T20:41:34;6.50;;;5.10;;
18364;SDS011;9309;52.126;11.616;2022-10-16T20:44:01;9.03;;;5.27;;
18364;SDS011;9309;52.126;11.616;2022-10-16T20:46:29;7.80;;;5.17;;
18364;SDS011;9309;52.126;11.616;2022-10-16T20:48:56;9.53;;;5.77;;
18364;SDS011;9309;52.126;11.616;2022-10-16T20:51:26;5.80;;;4.93;;
18364;SDS011;9309;52.126;11.616;2022-10-16T20:53:54;8.07;;;5.40;;
18364;SDS011;9309;52.126;11.616;2022-10-16T20:56:22;5.23;;;4.73;;
18364;SDS011;9309;52.126;11.616;2022-10-16T20:58:50;5.03;;;4.53;;
18364;SDS011;9309;52.126;11.616;2022-10-16T21:01:18;8.07;;;5.43;;
18364;SDS011;9309;52.126;11.616;2022-10-16T21:03:48;6.07;;;4.90;;
18364;SDS011;9309;52.126;11.616;2022-10-16T21:06:16;6.83;;;4.93;;
18364;SDS011;9309;52.126;11.616;2022-10-16T21:08:44;8.87;;;5.07;;
18364;SDS011;9309;52.126;11.616;2022-10-16T21:11:12;5.20;;;4.47;;
18364;SDS011;9309;52.126;11.616;2022-10-16T21:13:41;8.53;;;4.77;;
18364;SDS011;9309;52.126;11.616;2022-10-16T21:16:09;6.33;;;4.77;;
18364;SDS011;9309;52.126;11.616;2022-10-16T21:18:37;7.00;;;3.97;;
18364;SDS011;9309;52.126;11.616;2022-10-16T21:21:04;7.23;;;4.60;;
18364;SDS011;9309;52.126;11.616;2022-10-16T21:23:32;4.80;;;4.30;;
18364;SDS011;9309;52.126;11.616;2022-10-16T21:26:00;5.03;;;4.20;;
18364;SDS011;9309;52.126;11.616;2022-10-16T21:28:27;4.97;;;4.47;;
18364;SDS011;9309;52.126;11.616;2022-10-16T21:30:55;10.67;;;4.77;;
18364;SDS011;9309;52.126;11.616;2022-10-16T21:33:22;7.20;;;4.33;;
18364;SDS011;9309;52.126;11.616;2022-10-16T21:35:49;5.37;;;4.87;;
18364;SDS011;9309;52.126;11.616;2022-10-16T21:38:16;5.50;;;4.63;;
18364;SDS011;9309;52.126;11.616;2022-10-16T21:40:43;5.97;;;4.47;;
18364;SDS011;9309;52.126;11.616;2022-10-16T21:43:12;5.97;;;4.40;;
18364;SDS011;9309;52.126;11.616;2022-10-16T21:45:39;7.47;;;4.20;;
18364;SDS011;9309;52.126;11.616;2022-10-16T21:48:05;3.97;;;3.73;;
18364;SDS011;9309;52.126;11.616;2022-10-16T21:50:32;6.53;;;4.40;;
18364;SDS011;9309;52.126;11.616;2022-10-16T21:52:59;7.47;;;4.30;;
18364;SDS011;9309;52.126;11.616;2022-10-16T21:55:26;4.27;;;3.80;;
18364;SDS011;9309;52.126;11.616;2022-10-16T21:57:54;4.30;;;4.00;;
18364;SDS011;9309;52.126;11.616;2022-10-16T22:00:23;4.77;;;3.50;;
18364;SDS011;9309;52.126;11.616;2022-10-16T22:02:49;6.63;;;4.20;;
18364;SDS011;9309;52.126;11.616;2022-10-16T22:05:16;4.53;;;4.20;;
18364;SDS011;9309;52.126;11.616;2022-10-16T22:07:43;4.43;;;4.10;;
18364;SDS011;9309;52.126;11.616;2022-10-16T22:10:10;4.27;;;3.97;;
18364;SDS011;9309;52.126;11.616;2022-10-16T22:12:37;5.17;;;4.23;;
18364;SDS011;9309;52.126;11.616;2022-10-16T22:15:05;5.77;;;3.90;;
18364;SDS011;9309;52.126;11.616;2022-10-16T22:17:34;7.77;;;3.60;;
18364;SDS011;9309;52.126;11.616;2022-10-16T22:20:01;7.60;;;3.57;;